createdAt,value
2023-04-07T00:00:06.276Z,100359.56
2023-04-07T00:02:43.011Z,100342.03
2023-04-07T00:05:12.120Z,100343.78
2023-04-07T00:07:52.300Z,100356.22
2023-04-07T00:10:24.415Z,100319.28
2023-04-07T00:12:52.322Z,100355.09
2023-04-07T00:15:20.403Z,100350.41
2023-04-07T00:17:49.664Z,100353.03
2023-04-07T00:20:17.586Z,100324.69
2023-04-07T00:22:45.464Z,100354.69
2023-04-07T00:25:13.344Z,100346.53
2023-04-07T00:27:41.147Z,100344.84
2023-04-07T00:30:09.799Z,100326.81
2023-04-07T00:32:37.681Z,100340.75
2023-04-07T00:35:08.177Z,100348.34
2023-04-07T00:37:36.365Z,100341.47
2023-04-07T00:40:04.610Z,100244.13
2023-04-07T00:42:32.511Z,100337.38
2023-04-07T00:45:00.398Z,100324.28
2023-04-07T00:47:28.463Z,100310.66
2023-04-07T00:49:56.334Z,100322.63
2023-04-07T00:52:28.891Z,100331.06
2023-04-07T00:54:57.029Z,100300.34
2023-04-07T00:57:25.445Z,100301.25
2023-04-07T00:59:54.194Z,100336.28
2023-04-07T01:02:28.244Z,100297.13
2023-04-07T01:05:06.305Z,100326.50
2023-04-07T01:07:41.224Z,100317.22
2023-04-07T01:10:17.382Z,100249.03
2023-04-07T01:12:58.384Z,100324.47
2023-04-07T01:15:31.204Z,100300.81
2023-04-07T01:18:07.758Z,100322.81
2023-04-07T01:20:37.580Z,100331.81
2023-04-07T01:23:08.814Z,100318.34
2023-04-07T01:26:05.349Z,100330.69
2023-04-07T01:28:55.930Z,100319.84
2023-04-07T01:31:27.765Z,100316.13
2023-04-07T01:33:58.515Z,100255.25
2023-04-07T01:36:29.248Z,100278.97
2023-04-07T01:38:58.277Z,100289.63
2023-04-07T01:41:27.631Z,100315.84
2023-04-07T01:43:56.429Z,100314.03
2023-04-07T01:46:27.244Z,100320.22
2023-04-07T01:48:56.923Z,100325.75
2023-04-07T01:51:26.614Z,100325.88
2023-04-07T01:53:55.350Z,100317.75
2023-04-07T01:56:23.600Z,100318.78
2023-04-07T01:58:54.116Z,100317.53
2023-04-07T02:01:24.372Z,100319.06
2023-04-07T02:03:57.678Z,100297.94
2023-04-07T02:06:30.221Z,100317.31
2023-04-07T02:09:03.490Z,100240.16
2023-04-07T02:11:34.445Z,100228.81
2023-04-07T02:14:07.442Z,100311.53
2023-04-07T02:16:50.292Z,100320.25
2023-04-07T02:19:20.051Z,100302.00
2023-04-07T02:21:49.670Z,100320.50
2023-04-07T02:24:20.738Z,100322.72
2023-04-07T02:26:49.190Z,100324.72
2023-04-07T02:29:17.085Z,100201.16
2023-04-07T02:31:44.983Z,100305.63
2023-04-07T02:34:12.949Z,100316.34
2023-04-07T02:36:42.242Z,100202.53
2023-04-07T02:39:10.519Z,100329.63
2023-04-07T02:41:38.384Z,100326.69
2023-04-07T02:44:06.358Z,100318.44
2023-04-07T02:46:34.251Z,100337.59
2023-04-07T02:49:02.141Z,100327.59
2023-04-07T02:51:29.989Z,100340.28
2023-04-07T02:53:59.216Z,100187.59
2023-04-07T02:56:27.054Z,100334.03
2023-04-07T02:58:55.304Z,100325.44
2023-04-07T03:01:23.390Z,100311.13
2023-04-07T03:03:51.743Z,100299.88
2023-04-07T03:06:23.938Z,100326.91
2023-04-07T03:09:05.756Z,100219.88
2023-04-07T03:11:34.815Z,100325.88
2023-04-07T03:14:02.627Z,100298.56
2023-04-07T03:16:31.975Z,100325.78
2023-04-07T03:19:11.718Z,100323.97
2023-04-07T03:21:45.480Z,100327.66
2023-04-07T03:24:14.771Z,100321.38
2023-04-07T03:26:42.585Z,100284.69
2023-04-07T03:29:32.782Z,100312.25
2023-04-07T03:32:02.161Z,100318.28
2023-04-07T03:34:29.956Z,100319.03
2023-04-07T03:36:59.987Z,100289.34
2023-04-07T03:39:31.141Z,100314.66
2023-04-07T03:42:01.759Z,100304.44
2023-04-07T03:44:32.957Z,100317.44
2023-04-07T03:47:02.341Z,100308.53
2023-04-07T03:49:31.401Z,100294.75
2023-04-07T03:52:03.034Z,100323.81
2023-04-07T03:54:32.262Z,100300.13
2023-04-07T03:57:01.476Z,100309.78
2023-04-07T03:59:29.914Z,100315.13
2023-04-07T04:02:02.842Z,100312.56
2023-04-07T04:04:31.422Z,100313.31
2023-04-07T04:06:59.921Z,100311.53
2023-04-07T04:09:40.188Z,100320.78
2023-04-07T04:12:08.411Z,100329.75
2023-04-07T04:14:42.621Z,100304.34
2023-04-07T04:17:14.351Z,100320.47
2023-04-07T04:19:46.425Z,100210.06
2023-04-07T04:22:26.052Z,100317.88
2023-04-07T04:25:00.564Z,100317.75
2023-04-07T04:27:29.552Z,100311.88
2023-04-07T04:30:07.248Z,100327.72
2023-04-07T04:32:43.696Z,100320.78
2023-04-07T04:35:11.838Z,100320.84
2023-04-07T04:37:49.457Z,100326.97
2023-04-07T04:40:18.899Z,100330.56
2023-04-07T04:42:49.469Z,100335.94
2023-04-07T04:45:17.724Z,100336.09
2023-04-07T04:47:48.455Z,100330.84
2023-04-07T04:50:17.875Z,100332.66
2023-04-07T04:52:47.548Z,100288.78
2023-04-07T04:55:23.989Z,100338.75
2023-04-07T04:57:54.089Z,100334.44
2023-04-07T05:00:30.930Z,100339.78
2023-04-07T05:03:04.398Z,100339.91
2023-04-07T05:05:37.733Z,100340.78
2023-04-07T05:08:07.325Z,100339.88
2023-04-07T05:10:41.255Z,100341.66
2023-04-07T05:13:14.066Z,100325.06
2023-04-07T05:15:42.414Z,100305.16
2023-04-07T05:18:12.805Z,100308.56
2023-04-07T05:20:41.925Z,100348.75
2023-04-07T05:23:11.294Z,100337.53
2023-04-07T05:25:40.651Z,100356.81
2023-04-07T05:28:09.494Z,100359.38
2023-04-07T05:30:37.413Z,100347.75
2023-04-07T05:33:06.007Z,100361.69
2023-04-07T05:35:50.000Z,100357.31
2023-04-07T05:38:17.910Z,100364.34
2023-04-07T05:40:48.239Z,100363.41
2023-04-07T05:43:23.353Z,100337.13
2023-04-07T05:45:51.440Z,100366.81
2023-04-07T05:48:19.685Z,100352.56
2023-04-07T05:50:48.590Z,100353.59
2023-04-07T05:53:18.985Z,100361.81
2023-04-07T05:55:48.935Z,100355.13
2023-04-07T05:58:26.159Z,100362.63
2023-04-07T06:00:56.056Z,100367.34
2023-04-07T06:03:24.103Z,100364.03
2023-04-07T06:06:11.288Z,100373.63
2023-04-07T06:08:39.373Z,100383.16
2023-04-07T06:11:08.708Z,100347.06
2023-04-07T06:13:36.510Z,100386.13
2023-04-07T06:16:04.404Z,100391.81
2023-04-07T06:18:32.351Z,100392.00
2023-04-07T06:21:00.567Z,100392.09
2023-04-07T06:23:28.394Z,100390.16
2023-04-07T06:25:56.465Z,100376.66
2023-04-07T06:28:25.755Z,100391.97
2023-04-07T06:30:53.745Z,100399.19
2023-04-07T06:33:25.544Z,100395.56
2023-04-07T06:35:53.764Z,100393.19
2023-04-07T06:38:21.709Z,100402.25
2023-04-07T06:40:49.595Z,100402.19
2023-04-07T06:43:17.424Z,100409.75
2023-04-07T06:45:53.962Z,100409.28
2023-04-07T06:48:21.884Z,100359.94
2023-04-07T06:50:50.701Z,100404.09
2023-04-07T06:53:18.534Z,100411.78
2023-04-07T06:55:46.456Z,100371.63
2023-04-07T06:58:14.353Z,100416.06
2023-04-07T07:00:42.148Z,100414.22
2023-04-07T07:03:11.461Z,100414.13
2023-04-07T07:05:39.381Z,100415.19
2023-04-07T07:08:07.315Z,100409.03
2023-04-07T07:10:35.198Z,100417.50
2023-04-07T07:13:03.328Z,100399.63
2023-04-07T07:15:31.185Z,100402.97
2023-04-07T07:17:59.192Z,100416.97
2023-04-07T07:20:28.434Z,100313.97
2023-04-07T07:22:56.669Z,100432.97
2023-04-07T07:25:26.822Z,100425.50
2023-04-07T07:27:54.905Z,100431.88
2023-04-07T07:30:24.055Z,100425.50
2023-04-07T07:32:53.627Z,100425.78
2023-04-07T07:35:21.927Z,100427.56
2023-04-07T07:37:51.970Z,100390.13
2023-04-07T07:40:19.868Z,100425.28
2023-04-07T07:42:48.111Z,100431.06
2023-04-07T07:45:17.557Z,100416.63
2023-04-07T07:47:45.455Z,100418.16
2023-04-07T07:50:13.320Z,100440.06
2023-04-07T07:52:41.776Z,100448.63
2023-04-07T07:55:11.289Z,100441.47
2023-04-07T07:57:39.170Z,100444.84
2023-04-07T08:00:08.516Z,100455.44
2023-04-07T08:02:42.536Z,100448.31
2023-04-07T08:05:11.384Z,100447.91
2023-04-07T08:07:39.236Z,100450.28
2023-04-07T08:10:07.998Z,100453.81
2023-04-07T08:12:37.264Z,100383.16
2023-04-07T08:15:06.297Z,100441.56
2023-04-07T08:17:34.228Z,100450.09
2023-04-07T08:20:02.195Z,100453.34
2023-04-07T08:22:30.166Z,100456.34
2023-04-07T08:24:58.073Z,100430.88
2023-04-07T08:27:26.065Z,100436.50
2023-04-07T08:30:02.401Z,100437.91
2023-04-07T08:32:36.603Z,100447.72
2023-04-07T08:35:04.906Z,100451.69
2023-04-07T08:37:32.854Z,100407.84
2023-04-07T08:40:01.677Z,100457.22
2023-04-07T08:42:32.204Z,100460.75
2023-04-07T08:45:04.668Z,100465.13
2023-04-07T08:47:34.181Z,100454.25
2023-04-07T08:50:04.054Z,100464.19
2023-04-07T08:52:35.588Z,100451.91
2023-04-07T08:55:06.848Z,100464.66
2023-04-07T08:57:35.267Z,100467.28
2023-04-07T09:00:05.968Z,100458.66
2023-04-07T09:02:35.414Z,100465.06
2023-04-07T09:05:06.187Z,100469.13
2023-04-07T09:07:35.798Z,100463.81
2023-04-07T09:10:04.543Z,100461.13
2023-04-07T09:12:33.951Z,100469.66
2023-04-07T09:15:02.062Z,100452.13
2023-04-07T09:17:31.330Z,100357.44
2023-04-07T09:20:00.821Z,100475.13
2023-04-07T09:22:46.702Z,100466.94
2023-04-07T09:25:16.578Z,100469.13
2023-04-07T09:27:58.910Z,100421.25
2023-04-07T09:30:28.050Z,100452.91
2023-04-07T09:32:57.818Z,100449.81
2023-04-07T09:35:28.233Z,100444.56
2023-04-07T09:38:03.658Z,100468.84
2023-04-07T09:40:32.545Z,100449.19
2023-04-07T09:43:00.586Z,100466.63
2023-04-07T09:48:06.539Z,100464.56
2023-04-07T09:50:36.133Z,100457.56
2023-04-07T09:53:04.913Z,100461.06
2023-04-07T09:55:33.828Z,100434.72
2023-04-07T09:58:02.719Z,100454.41
2023-04-07T10:00:30.658Z,100465.06
2023-04-07T10:02:59.036Z,100461.31
2023-04-07T10:05:29.078Z,100429.50
2023-04-07T10:07:57.540Z,100469.56
2023-04-07T10:10:26.501Z,100461.50
2023-04-07T10:12:58.018Z,100448.69
2023-04-07T10:15:26.576Z,100462.81
2023-04-07T10:17:56.684Z,100452.41
2023-04-07T10:20:25.400Z,100459.78
2023-04-07T10:22:59.516Z,100462.28
2023-04-07T10:25:27.721Z,100425.72
2023-04-07T10:28:00.638Z,100464.34
2023-04-07T10:30:31.607Z,100459.03
2023-04-07T10:32:59.914Z,100463.28
2023-04-07T10:35:28.385Z,100464.09
2023-04-07T10:38:15.259Z,100466.88
2023-04-07T10:40:44.083Z,100464.41
2023-04-07T10:43:12.388Z,100469.38
2023-04-07T10:46:00.500Z,100445.56
2023-04-07T10:48:33.356Z,100470.94
2023-04-07T10:51:20.297Z,100459.53
2023-04-07T10:54:23.792Z,100469.06
2023-04-07T10:57:14.429Z,100477.66
2023-04-07T10:59:47.019Z,100475.06
2023-04-07T11:02:37.285Z,100471.81
2023-04-07T11:05:05.872Z,100467.78
2023-04-07T11:07:51.708Z,100454.16
2023-04-07T11:10:22.102Z,100461.31
2023-04-07T11:13:00.702Z,100475.16
2023-04-07T11:15:28.789Z,100478.59
2023-04-07T11:18:16.685Z,100476.53
2023-04-07T11:20:49.873Z,100480.53
2023-04-07T11:23:19.182Z,100475.41
2023-04-07T11:25:49.867Z,100469.75
2023-04-07T11:28:18.024Z,100458.97
2023-04-07T11:30:48.596Z,100461.50
2023-04-07T11:33:18.616Z,100468.75
2023-04-07T11:35:55.514Z,100464.66
2023-04-07T11:38:24.791Z,100425.34
2023-04-07T11:40:54.356Z,100461.78
2023-04-07T11:43:24.225Z,100456.28
2023-04-07T11:46:07.968Z,100468.88
2023-04-07T11:48:37.179Z,100473.34
2023-04-07T11:51:05.553Z,100463.28
2023-04-07T11:53:35.194Z,100467.63
2023-04-07T11:56:10.087Z,100440.25
2023-04-07T11:58:38.669Z,100464.97
2023-04-07T12:01:08.992Z,100468.59
2023-04-07T12:03:38.506Z,100443.59
2023-04-07T12:06:07.123Z,100472.13
2023-04-07T12:08:40.061Z,100471.25
2023-04-07T12:11:10.119Z,100471.03
2023-04-07T12:13:38.596Z,100464.34
2023-04-07T12:16:06.917Z,100470.03
2023-04-07T12:18:34.748Z,100472.41
2023-04-07T12:21:02.637Z,100453.09
2023-04-07T12:23:30.497Z,100468.41
2023-04-07T12:25:58.383Z,100478.53
2023-04-07T12:28:27.648Z,100466.50
2023-04-07T12:30:55.900Z,100474.19
2023-04-07T12:33:23.710Z,100463.28
2023-04-07T12:35:51.843Z,100456.84
2023-04-07T12:38:19.846Z,100463.28
2023-04-07T12:40:47.774Z,100445.97
2023-04-07T12:43:15.669Z,100422.75
2023-04-07T12:45:45.037Z,100473.66
2023-04-07T12:48:12.872Z,100472.91
2023-04-07T12:50:41.013Z,100475.13
2023-04-07T12:53:09.311Z,100455.63
2023-04-07T12:55:37.419Z,100466.59
2023-04-07T12:58:05.707Z,100472.91
2023-04-07T13:00:33.599Z,100462.00
2023-04-07T13:03:03.648Z,100461.50
2023-04-07T13:05:31.756Z,100469.44
2023-04-07T13:07:59.725Z,100459.16
2023-04-07T13:10:27.697Z,100459.19
2023-04-07T13:12:55.656Z,100460.84
2023-04-07T13:15:23.508Z,100472.19
2023-04-07T13:17:52.107Z,100474.06
2023-04-07T13:20:21.869Z,100461.97
2023-04-07T13:23:02.786Z,100463.97
2023-04-07T13:25:33.857Z,100440.50
2023-04-07T13:28:01.689Z,100452.13
2023-04-07T13:30:29.513Z,100444.88
2023-04-07T13:32:57.473Z,100455.72
2023-04-07T13:35:27.133Z,100461.97
2023-04-07T13:37:54.959Z,100472.28
2023-04-07T13:40:23.444Z,100463.50
2023-04-07T13:42:51.343Z,100462.06
2023-04-07T13:45:19.240Z,100476.13
2023-04-07T13:47:47.465Z,100470.47
2023-04-07T13:50:15.821Z,100462.91
2023-04-07T13:52:45.131Z,100476.19
2023-04-07T13:55:12.906Z,100478.94
2023-04-07T13:57:40.949Z,100474.50
2023-04-07T14:00:09.754Z,100472.22
2023-04-07T14:02:38.515Z,100468.78
2023-04-07T14:05:07.252Z,100453.88
2023-04-07T14:07:35.010Z,100463.09
2023-04-07T14:10:04.504Z,100477.03
2023-04-07T14:12:32.626Z,100462.13
2023-04-07T14:15:00.548Z,100469.03
2023-04-07T14:17:28.411Z,100472.56
2023-04-07T14:19:56.345Z,100448.41
2023-04-07T14:22:24.249Z,100466.56
2023-04-07T14:24:52.169Z,100439.38
2023-04-07T14:27:22.346Z,100473.53
2023-04-07T14:29:50.340Z,100475.75
2023-04-07T14:32:18.309Z,100467.47
2023-04-07T14:34:46.117Z,100477.59
2023-04-07T14:37:14.143Z,100470.25
2023-04-07T14:39:48.514Z,100468.59
2023-04-07T14:42:24.973Z,100457.06
2023-04-07T14:44:53.146Z,100452.22
2023-04-07T14:47:21.200Z,100464.97
2023-04-07T14:49:51.166Z,100486.09
2023-04-07T14:52:20.630Z,100480.56
2023-04-07T14:54:48.509Z,100485.69
2023-04-07T14:57:16.402Z,100481.41
2023-04-07T14:59:45.997Z,100480.94
2023-04-07T15:02:13.880Z,100483.13
2023-04-07T15:04:42.040Z,100479.94
2023-04-07T15:07:09.969Z,100491.31
2023-04-07T15:09:37.847Z,100492.03
2023-04-07T15:12:05.740Z,100505.53
2023-04-07T15:14:33.536Z,100494.84
2023-04-07T15:17:02.742Z,100482.72
2023-04-07T15:19:30.817Z,100507.81
2023-04-07T15:21:58.680Z,100497.31
2023-04-07T15:24:26.410Z,100501.56
2023-04-07T15:26:55.355Z,100497.97
2023-04-07T15:29:23.219Z,100509.84
2023-04-07T15:31:51.371Z,100506.13
2023-04-07T15:34:20.574Z,100259.34
2023-04-07T15:36:48.438Z,100505.38
2023-04-07T15:39:16.822Z,100508.09
2023-04-07T15:41:44.727Z,100507.22
2023-04-07T15:44:18.265Z,100518.41
2023-04-07T15:46:46.623Z,100517.72
2023-04-07T15:49:19.866Z,100505.63
2023-04-07T15:51:49.258Z,100503.88
2023-04-07T15:54:17.046Z,100525.09
2023-04-07T15:56:44.804Z,100529.81
2023-04-07T15:59:12.721Z,100481.44
2023-04-07T16:01:40.720Z,100532.88
2023-04-07T16:04:08.845Z,100531.97
2023-04-07T16:06:36.796Z,100539.97
2023-04-07T16:09:06.089Z,100486.53
2023-04-07T16:11:33.948Z,100529.56
2023-04-07T16:14:01.757Z,100530.63
2023-04-07T16:16:29.645Z,100479.06
2023-04-07T16:18:57.454Z,100532.00
2023-04-07T16:21:27.304Z,100516.31
2023-04-07T16:23:55.174Z,100522.31
2023-04-07T16:26:24.400Z,100547.25
2023-04-07T16:28:52.367Z,100551.53
2023-04-07T16:31:20.296Z,100544.44
2023-04-07T16:33:48.361Z,100550.94
2023-04-07T16:36:16.560Z,100533.41
2023-04-07T16:38:44.389Z,100564.00
2023-04-07T16:41:12.386Z,100558.84
2023-04-07T16:43:41.550Z,100563.97
2023-04-07T16:46:09.380Z,100558.44
2023-04-07T16:48:37.205Z,100563.47
2023-04-07T16:51:05.144Z,100565.25
2023-04-07T16:53:32.898Z,100575.56
2023-04-07T16:56:00.716Z,100569.88
2023-04-07T16:58:28.572Z,100576.19
2023-04-07T17:00:57.741Z,100512.13
2023-04-07T17:03:25.618Z,100581.66
2023-04-07T17:05:53.723Z,100578.72
2023-04-07T17:08:21.515Z,100521.38
2023-04-07T17:10:49.361Z,100564.53
2023-04-07T17:13:17.119Z,100580.28
2023-04-07T17:15:44.951Z,100591.72
2023-04-07T17:18:14.195Z,100595.50
2023-04-07T17:20:42.031Z,100491.41
2023-04-07T17:23:10.396Z,100604.63
2023-04-07T17:25:38.371Z,100615.09
2023-04-07T17:28:06.146Z,100615.28
2023-04-07T17:30:34.108Z,100614.78
2023-04-07T17:33:03.533Z,100622.22
2023-04-07T17:35:32.767Z,100625.53
2023-04-07T17:38:02.615Z,100632.00
2023-04-07T17:40:30.598Z,100603.75
2023-04-07T17:42:58.858Z,100637.41
2023-04-07T17:45:26.676Z,100651.69
2023-04-07T17:47:54.820Z,100649.22
2023-04-07T17:50:22.862Z,100644.28
2023-04-07T17:52:52.018Z,100653.03
2023-04-07T17:55:20.032Z,100655.78
2023-04-07T17:57:47.865Z,100659.97
2023-04-07T18:00:16.001Z,100658.63
2023-04-07T18:02:44.206Z,100663.59
2023-04-07T18:05:12.774Z,100657.72
2023-04-07T18:07:40.535Z,100664.41
2023-04-07T18:10:11.028Z,100672.63
2023-04-07T18:12:39.454Z,100674.72
2023-04-07T18:15:08.566Z,100657.84
2023-04-07T18:17:36.369Z,100677.78
2023-04-07T18:20:04.605Z,100678.13
2023-04-07T18:22:32.874Z,100647.06
2023-04-07T18:25:02.195Z,100677.13
2023-04-07T18:27:31.339Z,100677.56
2023-04-07T18:29:59.148Z,100684.19
2023-04-07T18:32:26.987Z,100688.19
2023-04-07T18:34:54.838Z,100682.38
2023-04-07T18:37:22.787Z,100694.78
2023-04-07T18:39:52.074Z,100681.72
2023-04-07T18:42:19.867Z,100695.94
2023-04-07T18:44:49.049Z,100699.66
2023-04-07T18:47:17.240Z,100711.50
2023-04-07T18:49:45.166Z,100716.09
2023-04-07T18:52:12.989Z,100720.53
2023-04-07T18:54:40.814Z,100726.16
2023-04-07T18:57:08.612Z,100728.03
2023-04-07T18:59:36.493Z,100731.97
2023-04-07T19:02:05.768Z,100657.13
2023-04-07T19:04:33.607Z,100736.28
2023-04-07T19:07:01.444Z,100740.50
2023-04-07T19:09:29.495Z,100719.06
2023-04-07T19:11:57.844Z,100750.06
2023-04-07T19:14:25.841Z,100754.22
2023-04-07T19:16:53.811Z,100753.38
2023-04-07T19:19:22.955Z,100756.00
2023-04-07T19:21:51.418Z,100737.03
2023-04-07T19:24:19.167Z,100767.22
2023-04-07T19:26:47.169Z,100782.19
2023-04-07T19:29:14.982Z,100776.00
2023-04-07T19:31:42.812Z,100781.34
2023-04-07T19:34:10.983Z,100777.91
2023-04-07T19:36:40.169Z,100779.84
2023-04-07T19:39:07.972Z,100793.09
2023-04-07T19:41:35.870Z,100801.88
2023-04-07T19:44:03.666Z,100802.72
2023-04-07T19:46:33.260Z,100782.94
2023-04-07T19:49:01.196Z,100803.75
2023-04-07T19:51:29.113Z,100804.53
2023-04-07T19:53:58.266Z,100800.19
2023-04-07T19:56:26.061Z,100810.94
2023-04-07T19:58:54.201Z,100805.88
2023-04-07T20:01:22.131Z,100783.59
2023-04-07T20:03:50.149Z,100813.28
2023-04-07T20:06:19.043Z,100809.81
2023-04-07T20:08:48.309Z,100828.84
2023-04-07T20:11:17.783Z,100829.38
2023-04-07T20:13:45.591Z,100822.50
2023-04-07T20:16:14.041Z,100812.75
2023-04-07T20:18:42.154Z,100824.25
2023-04-07T20:21:10.726Z,100825.81
2023-04-07T20:23:38.671Z,100835.97
2023-04-07T20:26:07.085Z,100830.53
2023-04-07T20:28:36.387Z,100838.59
2023-04-07T20:31:04.277Z,100838.09
2023-04-07T20:33:32.180Z,100845.84
2023-04-07T20:36:00.080Z,100844.69
2023-04-07T20:38:27.867Z,100852.53
2023-04-07T20:40:56.007Z,100832.78
2023-04-07T20:43:23.965Z,100851.97
2023-04-07T20:45:53.320Z,100826.03
2023-04-07T20:48:23.758Z,100853.31
2023-04-07T20:50:52.230Z,100792.38
2023-04-07T20:53:20.167Z,100857.63
2023-04-07T20:55:48.416Z,100847.00
2023-04-07T20:58:17.628Z,100853.06
2023-04-07T21:00:45.547Z,100871.56
2023-04-07T21:03:15.032Z,100858.78
2023-04-07T21:05:43.432Z,100862.41
2023-04-07T21:08:13.244Z,100870.19
2023-04-07T21:10:42.311Z,100827.09
2023-04-07T21:13:10.102Z,100866.72
2023-04-07T21:15:38.020Z,100848.28
2023-04-07T21:18:05.995Z,100875.69
2023-04-07T21:20:36.947Z,100843.72
2023-04-07T21:23:05.346Z,100869.31
2023-04-07T21:25:33.275Z,100878.41
2023-04-07T21:28:01.156Z,100878.50
2023-04-07T21:30:28.980Z,100881.44
2023-04-07T21:32:56.991Z,100884.19
2023-04-07T21:35:27.679Z,100856.19
2023-04-07T21:37:57.183Z,100885.19
2023-04-07T21:40:24.915Z,100849.56
2023-04-07T21:42:52.927Z,100885.72
2023-04-07T21:45:20.722Z,100889.50
2023-04-07T21:47:48.596Z,100895.16
2023-04-07T21:50:16.806Z,100882.63
2023-04-07T21:52:44.662Z,100804.66
2023-04-07T21:55:13.895Z,100867.56
2023-04-07T21:57:41.700Z,100893.94
2023-04-07T22:00:12.000Z,100899.41
2023-04-07T22:02:42.859Z,100904.63
2023-04-07T22:05:11.316Z,100896.81
2023-04-07T22:07:39.182Z,100904.03
2023-04-07T22:10:08.427Z,100899.53
2023-04-07T22:12:37.587Z,100906.66
2023-04-07T22:15:06.294Z,100902.50
2023-04-07T22:17:34.297Z,100909.50
2023-04-07T22:20:02.115Z,100905.19
2023-04-07T22:22:30.013Z,100908.78
2023-04-07T22:24:57.811Z,100905.31
2023-04-07T22:27:27.320Z,100914.06
2023-04-07T22:29:56.550Z,100908.91
2023-04-07T22:32:24.354Z,100884.16
2023-04-07T22:34:52.183Z,100897.38
2023-04-07T22:37:20.320Z,100917.72
2023-04-07T22:39:48.098Z,100919.50
2023-04-07T22:42:16.001Z,100921.34
2023-04-07T22:44:43.753Z,100911.44
2023-04-07T22:47:12.923Z,100911.13
2023-04-07T22:49:40.744Z,100891.75
2023-04-07T22:52:08.575Z,100921.75
2023-04-07T22:54:36.593Z,100899.75
2023-04-07T22:57:04.405Z,100922.75
2023-04-07T22:59:32.295Z,100920.97
2023-04-07T23:02:00.259Z,100925.41
2023-04-07T23:04:29.550Z,100919.22
2023-04-07T23:06:57.338Z,100927.84
2023-04-07T23:09:25.654Z,100912.78
2023-04-07T23:11:53.656Z,100917.09
2023-04-07T23:14:21.491Z,100929.47
2023-04-07T23:16:49.373Z,100932.13
2023-04-07T23:19:17.708Z,100931.34
2023-04-07T23:21:46.957Z,100941.06
2023-04-07T23:24:14.825Z,100926.00
2023-04-07T23:26:42.620Z,100932.19
2023-04-07T23:29:10.986Z,100938.34
2023-04-07T23:31:38.937Z,100939.16
2023-04-07T23:34:07.059Z,100935.59
2023-04-07T23:36:34.909Z,100942.63
2023-04-07T23:39:04.196Z,100931.97
2023-04-07T23:41:32.260Z,100942.63
2023-04-07T23:44:00.300Z,100940.81
2023-04-07T23:46:28.274Z,100946.09
2023-04-07T23:48:56.302Z,100941.69
2023-04-07T23:51:24.076Z,100946.94
2023-04-07T23:53:52.172Z,100943.34
2023-04-07T23:56:21.359Z,100916.91
2023-04-07T23:58:49.845Z,100947.56
